createdAt,value
2022-10-23T00:01:46.421Z,100576.00
2022-10-23T00:04:38.858Z,100571.49
2022-10-23T00:10:29.548Z,100589.08
2022-10-23T00:13:21.630Z,100577.44
2022-10-23T00:16:14.328Z,100573.59
2022-10-23T00:19:05.150Z,100568.27
2022-10-23T00:21:57.657Z,100564.78
2022-10-23T00:24:50.031Z,100562.95
2022-10-23T00:27:42.218Z,100561.11
2022-10-23T00:30:34.641Z,100569.70
2022-10-23T00:33:26.754Z,100558.69
2022-10-23T00:36:20.871Z,100554.22
2022-10-23T00:39:12.983Z,100549.53
2022-10-23T00:42:05.076Z,100555.47
2022-10-23T00:45:18.298Z,100561.23
2022-10-23T00:48:10.746Z,100563.69
2022-10-23T00:51:03.434Z,100569.63
2022-10-23T00:54:06.736Z,100557.81
2022-10-23T00:57:16.558Z,100560.08
2022-10-23T01:00:13.385Z,100558.05
2022-10-23T01:03:06.837Z,100543.53
2022-10-23T01:06:07.833Z,100547.02
2022-10-23T01:09:08.670Z,100543.35
2022-10-23T01:12:09.096Z,100547.66
2022-10-23T01:15:08.090Z,100543.14
2022-10-23T01:18:06.471Z,100538.66
2022-10-23T01:21:02.149Z,100550.09
2022-10-23T01:24:12.083Z,100539.47
2022-10-23T01:27:28.485Z,100538.66
2022-10-23T01:30:20.927Z,100530.47
2022-10-23T01:33:20.699Z,100520.05
2022-10-23T01:36:18.124Z,100529.45
2022-10-23T01:39:14.228Z,100524.14
2022-10-23T01:42:12.353Z,100514.34
2022-10-23T01:45:09.041Z,100510.66
2022-10-23T01:48:11.470Z,100515.59
2022-10-23T01:51:09.300Z,100513.55
2022-10-23T01:54:07.514Z,100507.22
2022-10-23T01:57:01.726Z,100517.64
2022-10-23T01:59:58.221Z,100523.59
2022-10-23T02:02:53.375Z,100513.97
2022-10-23T02:05:47.470Z,100526.45
2022-10-23T02:08:39.963Z,100528.10
2022-10-23T02:11:37.372Z,100521.55
2022-10-23T02:14:39.103Z,100528.33
2022-10-23T02:17:42.899Z,100527.55
2022-10-23T02:23:40.566Z,100526.78
2022-10-23T02:26:40.282Z,100524.97
2022-10-23T02:29:37.031Z,100526.25
2022-10-23T02:32:31.096Z,100531.41
2022-10-23T02:35:25.323Z,100528.56
2022-10-23T02:38:37.243Z,100520.18
2022-10-23T02:41:42.123Z,100522.26
2022-10-23T02:44:45.235Z,100523.52
2022-10-23T02:47:54.951Z,100518.81
2022-10-23T02:50:55.587Z,100514.16
2022-10-23T02:57:06.007Z,100526.05
2022-10-23T03:00:06.656Z,100507.19
2022-10-23T03:03:02.359Z,100514.14
2022-10-23T03:05:56.356Z,100518.87
2022-10-23T03:08:53.999Z,100517.44
2022-10-23T03:11:46.095Z,100528.49
2022-10-23T03:14:38.331Z,100525.64
2022-10-23T03:17:29.868Z,100539.58
2022-10-23T03:20:23.210Z,100548.61
2022-10-23T03:23:16.921Z,100542.44
2022-10-23T03:26:09.326Z,100545.10
2022-10-23T03:29:05.508Z,100550.44
2022-10-23T03:32:00.038Z,100547.99
2022-10-23T03:34:52.227Z,100552.70
2022-10-23T03:37:44.301Z,100567.06
2022-10-23T03:40:37.272Z,100575.47
2022-10-23T03:43:29.853Z,100572.99
2022-10-23T03:46:21.738Z,100568.91
2022-10-23T03:49:16.524Z,100569.50
2022-10-23T03:52:07.848Z,100597.41
2022-10-23T03:55:00.523Z,100610.91
2022-10-23T03:57:50.273Z,100604.97
2022-10-23T04:00:44.986Z,100617.89
2022-10-23T04:03:37.478Z,100617.89
2022-10-23T04:06:28.968Z,100609.28
2022-10-23T04:09:22.868Z,100623.63
2022-10-23T04:12:15.349Z,100613.16
2022-10-23T04:15:09.479Z,100635.72
2022-10-23T04:18:02.363Z,100628.13
2022-10-23T04:20:56.813Z,100631.19
2022-10-23T04:23:48.800Z,100626.05
2022-10-23T04:26:42.670Z,100638.75
2022-10-23T04:29:36.153Z,100642.65
2022-10-23T04:32:28.380Z,100645.50
2022-10-23T04:35:21.515Z,100639.37
2022-10-23T04:38:14.309Z,100631.77
2022-10-23T04:41:07.832Z,100624.80
2022-10-23T04:43:59.671Z,100636.48
2022-10-23T04:46:52.221Z,100648.13
2022-10-23T04:49:42.612Z,100654.26
2022-10-23T04:52:47.550Z,100659.18
2022-10-23T04:56:14.088Z,100670.86
2022-10-23T04:59:20.912Z,100666.55
2022-10-23T05:02:11.361Z,100674.10
2022-10-23T05:05:03.465Z,100671.65
2022-10-23T05:07:58.735Z,100685.98
2022-10-23T05:11:16.880Z,100686.17
2022-10-23T05:14:12.236Z,100694.56
2022-10-23T05:17:09.950Z,100705.61
2022-10-23T05:20:07.847Z,100706.62
2022-10-23T05:23:01.891Z,100717.27
2022-10-23T05:25:54.345Z,100720.15
2022-10-23T05:28:47.430Z,100729.16
2022-10-23T05:31:42.638Z,100734.48
2022-10-23T05:34:39.592Z,100737.14
2022-10-23T05:37:34.856Z,100737.14
2022-10-23T05:43:43.420Z,100758.23
2022-10-23T05:46:55.351Z,100761.53
2022-10-23T05:50:06.750Z,100762.99
2022-10-23T05:53:17.881Z,100779.59
2022-10-23T05:56:37.755Z,100774.90
2022-10-23T05:59:50.296Z,100780.46
2022-10-23T06:03:06.190Z,100777.19
2022-10-23T06:06:01.412Z,100786.28
2022-10-23T06:09:05.063Z,100798.82
2022-10-23T06:12:02.429Z,100798.22
2022-10-23T06:14:56.256Z,100803.59
2022-10-23T06:17:52.996Z,100799.92
2022-10-23T06:20:46.051Z,100813.92
2022-10-23T06:23:47.410Z,100807.58
2022-10-23T06:26:54.743Z,100818.70
2022-10-23T06:29:58.523Z,100824.29
2022-10-23T06:32:50.274Z,100828.20
2022-10-23T06:35:42.256Z,100837.48
2022-10-23T06:38:40.834Z,100844.69
2022-10-23T06:41:33.899Z,100842.05
2022-10-23T06:44:26.355Z,100851.94
2022-10-23T06:47:22.931Z,100849.27
2022-10-23T06:50:34.366Z,100851.79
2022-10-23T06:53:31.108Z,100862.06
2022-10-23T06:56:30.923Z,100868.63
2022-10-23T06:59:24.460Z,100867.16
2022-10-23T07:02:16.812Z,100871.03
2022-10-23T07:05:12.779Z,100877.56
2022-10-23T07:08:08.252Z,100876.48
2022-10-23T07:11:09.272Z,100872.33
2022-10-23T07:14:01.326Z,100872.45
2022-10-23T07:16:54.194Z,100879.13
2022-10-23T07:19:47.867Z,100875.14
2022-10-23T07:22:40.755Z,100890.45
2022-10-23T07:25:37.928Z,100893.63
2022-10-23T07:28:30.488Z,100902.77
2022-10-23T07:31:25.639Z,100898.16
2022-10-23T07:34:38.786Z,100903.80
2022-10-23T07:37:46.751Z,100903.42
2022-10-23T07:40:39.396Z,100910.29
2022-10-23T07:43:34.301Z,100911.78
2022-10-23T07:46:26.426Z,100909.19
2022-10-23T07:49:18.621Z,100913.10
2022-10-23T07:52:10.392Z,100903.03
2022-10-23T07:55:22.537Z,100915.39
2022-10-23T07:58:17.811Z,100918.48
2022-10-23T08:01:21.075Z,100925.64
2022-10-23T08:04:14.971Z,100909.91
2022-10-23T08:07:17.258Z,100907.95
2022-10-23T08:10:11.841Z,100917.80
2022-10-23T08:13:05.259Z,100912.55
2022-10-23T08:16:20.247Z,100910.30
2022-10-23T08:19:35.950Z,100928.52
2022-10-23T08:22:28.282Z,100928.61
2022-10-23T08:25:25.016Z,100926.80
2022-10-23T08:28:17.983Z,100933.08
2022-10-23T08:31:20.353Z,100931.81
2022-10-23T08:34:32.996Z,100938.63
2022-10-23T08:37:26.082Z,100935.12
2022-10-23T08:40:23.523Z,100928.08
2022-10-23T08:43:40.731Z,100930.55
2022-10-23T08:47:05.306Z,100927.00
2022-10-23T08:50:31.862Z,100931.31
2022-10-23T08:53:29.007Z,100936.91
2022-10-23T08:56:28.610Z,100945.77
2022-10-23T08:59:28.659Z,100941.38
2022-10-23T09:02:27.193Z,100946.39
2022-10-23T09:05:25.356Z,100949.77
2022-10-23T09:08:33.605Z,100945.05
2022-10-23T09:11:33.215Z,100941.11
2022-10-23T09:14:44.321Z,100956.11
2022-10-23T09:17:39.356Z,100951.11
2022-10-23T09:20:35.574Z,100953.66
2022-10-23T09:23:27.659Z,100954.29
2022-10-23T09:26:21.091Z,100968.45
2022-10-23T09:29:26.096Z,100960.95
2022-10-23T09:32:19.273Z,100961.57
2022-10-23T09:35:25.392Z,100966.52
2022-10-23T09:38:31.018Z,100968.23
2022-10-23T09:41:24.686Z,100961.78
2022-10-23T09:44:22.783Z,100959.12
2022-10-23T09:47:20.751Z,100961.87
2022-10-23T09:50:25.255Z,100953.48
2022-10-23T09:53:20.328Z,100961.94
2022-10-23T09:56:32.274Z,100958.97
2022-10-23T09:59:29.921Z,100950.34
2022-10-23T10:02:28.832Z,100946.55
2022-10-23T10:05:44.655Z,100949.81
2022-10-23T10:08:45.710Z,100940.59
2022-10-23T10:11:42.881Z,100947.92
2022-10-23T10:14:52.051Z,100939.77
2022-10-23T10:17:52.623Z,100933.27
2022-10-23T10:20:55.982Z,100932.17
2022-10-23T10:24:02.148Z,100922.38
2022-10-23T10:27:08.050Z,100921.55
2022-10-23T10:30:10.685Z,100914.72
2022-10-23T10:33:07.561Z,100920.11
2022-10-23T10:36:06.319Z,100914.39
2022-10-23T10:39:02.325Z,100906.75
2022-10-23T10:42:16.799Z,100905.08
2022-10-23T10:45:24.291Z,100905.31
2022-10-23T10:48:28.249Z,100903.96
2022-10-23T10:52:01.502Z,100921.03
2022-10-23T10:55:04.399Z,100913.38
2022-10-23T10:58:02.977Z,100909.54
2022-10-23T11:01:00.404Z,100906.78
2022-10-23T11:03:56.691Z,100906.48
2022-10-23T11:06:52.473Z,100903.43
2022-10-23T11:09:45.906Z,100896.86
2022-10-23T11:12:39.615Z,100887.03
2022-10-23T11:15:41.041Z,100890.02
2022-10-23T11:18:36.690Z,100892.73
2022-10-23T11:21:36.914Z,100892.16
2022-10-23T11:24:59.798Z,100896.47
2022-10-23T11:28:10.801Z,100897.50
2022-10-23T11:31:18.345Z,100901.80
2022-10-23T11:34:44.987Z,100893.07
2022-10-23T11:37:37.430Z,100889.25
2022-10-23T11:40:30.747Z,100884.86
2022-10-23T11:43:33.633Z,100878.53
2022-10-23T11:46:39.303Z,100879.02
2022-10-23T11:49:32.411Z,100875.71
2022-10-23T11:52:28.486Z,100874.61
2022-10-23T11:55:24.404Z,100877.34
2022-10-23T11:58:32.419Z,100877.86
2022-10-23T12:01:42.319Z,100885.45
2022-10-23T12:04:48.049Z,100885.97
2022-10-23T12:07:43.170Z,100889.22
2022-10-23T12:10:45.017Z,100870.46
2022-10-23T12:13:49.458Z,100870.68
2022-10-23T12:16:41.757Z,100866.28
2022-10-23T12:19:43.228Z,100872.25
2022-10-23T12:22:49.806Z,100864.91
2022-10-23T12:25:57.195Z,100872.77
2022-10-23T12:28:58.853Z,100872.19
2022-10-23T12:31:57.463Z,100871.61
2022-10-23T12:35:00.939Z,100878.67
2022-10-23T12:38:06.898Z,100873.53
2022-10-23T12:41:07.942Z,100871.61
2022-10-23T12:44:03.801Z,100864.78
2022-10-23T12:46:59.488Z,100867.72
2022-10-23T12:49:53.901Z,100871.00
2022-10-23T12:52:54.125Z,100873.72
2022-10-23T12:55:55.096Z,100875.62
2022-10-23T12:58:53.415Z,100877.83
2022-10-23T13:01:49.141Z,100875.89
2022-10-23T13:04:44.546Z,100874.00
2022-10-23T13:07:44.471Z,100870.17
2022-10-23T13:10:38.643Z,100867.45
2022-10-23T13:13:32.112Z,100869.34
2022-10-23T13:16:26.106Z,100876.72
2022-10-23T13:19:28.153Z,100883.79
2022-10-23T13:22:22.472Z,100885.69
2022-10-23T13:25:29.801Z,100884.06
2022-10-23T13:28:30.662Z,100877.83
2022-10-23T13:31:34.375Z,100878.09
2022-10-23T13:34:31.918Z,100869.71
2022-10-23T13:37:28.644Z,100875.44
2022-10-23T13:40:29.110Z,100875.49
2022-10-23T13:43:23.522Z,100870.41
2022-10-23T13:46:19.427Z,100881.36
2022-10-23T13:49:12.119Z,100884.92
2022-10-23T13:52:04.303Z,100883.61
2022-10-23T13:54:56.132Z,100893.45
2022-10-23T13:57:48.528Z,100898.11
2022-10-23T14:00:43.901Z,100896.54
2022-10-23T14:03:35.709Z,100892.24
2022-10-23T14:06:26.209Z,100895.01
2022-10-23T14:09:19.462Z,100892.34
2022-10-23T14:12:12.833Z,100891.86
2022-10-23T14:15:05.683Z,100901.73
2022-10-23T14:17:59.519Z,100884.13
2022-10-23T14:20:53.022Z,100893.12
2022-10-23T14:23:45.080Z,100891.53
2022-10-23T14:26:37.087Z,100900.81
2022-10-23T14:29:29.120Z,100896.81
2022-10-23T14:32:21.356Z,100893.59
2022-10-23T14:35:15.056Z,100902.04
2022-10-23T14:38:07.260Z,100901.80
2022-10-23T14:40:59.174Z,100899.14
2022-10-23T14:43:50.802Z,100890.20
2022-10-23T14:46:42.948Z,100895.69
2022-10-23T14:49:35.766Z,100900.63
2022-10-23T14:52:28.011Z,100906.08
2022-10-23T14:55:19.854Z,100901.23
2022-10-23T14:58:12.073Z,100894.72
2022-10-23T15:01:04.637Z,100899.62
2022-10-23T15:03:57.394Z,100894.76
2022-10-23T15:06:49.413Z,100899.65
2022-10-23T15:09:40.232Z,100903.98
2022-10-23T15:12:32.313Z,100901.78
2022-10-23T15:15:24.310Z,100905.02
2022-10-23T15:18:16.381Z,100903.91
2022-10-23T15:21:10.121Z,100909.01
2022-10-23T15:24:04.800Z,100907.08
2022-10-23T15:26:57.588Z,100913.23
2022-10-23T15:29:49.368Z,100913.14
2022-10-23T15:32:39.557Z,100911.43
2022-10-23T15:35:32.479Z,100918.66
2022-10-23T15:38:25.056Z,100923.41
2022-10-23T15:41:24.263Z,100926.81
2022-10-23T15:44:18.858Z,100932.06
2022-10-23T15:47:11.028Z,100932.76
2022-10-23T15:50:02.849Z,100939.57
2022-10-23T15:52:53.817Z,100948.30
2022-10-23T15:55:45.685Z,100958.09
2022-10-23T15:58:37.740Z,100961.14
2022-10-23T16:01:28.353Z,100962.02
2022-10-23T16:04:21.745Z,100969.17
2022-10-23T16:07:13.804Z,100978.27
2022-10-23T16:10:07.042Z,100988.42
2022-10-23T16:12:59.435Z,100992.11
2022-10-23T16:15:51.200Z,101004.12
2022-10-23T16:18:44.842Z,101005.10
2022-10-23T16:21:38.090Z,101014.17
2022-10-23T16:24:30.311Z,101028.33
2022-10-23T16:27:20.250Z,101034.09
2022-10-23T16:30:14.539Z,101038.48
2022-10-23T16:33:06.609Z,101042.88
2022-10-23T16:35:56.557Z,101049.72
2022-10-23T16:38:49.053Z,101054.92
2022-10-23T16:41:40.820Z,101048.50
2022-10-23T16:44:41.817Z,101062.83
2022-10-23T16:47:36.092Z,101060.17
2022-10-23T16:50:28.416Z,101060.18
2022-10-23T16:53:21.041Z,101068.01
2022-10-23T16:56:16.473Z,101070.73
2022-10-23T16:59:08.636Z,101073.99
2022-10-23T17:02:00.925Z,101068.59
2022-10-23T17:04:53.256Z,101075.62
2022-10-23T17:07:45.799Z,101074.33
2022-10-23T17:10:37.934Z,101072.44
2022-10-23T17:13:30.218Z,101079.20
2022-10-23T17:16:24.564Z,101077.30
2022-10-23T17:19:43.447Z,101091.26
2022-10-23T17:22:30.290Z,101089.14
2022-10-23T17:25:22.056Z,101092.14
2022-10-23T17:28:14.498Z,101092.67
2022-10-23T17:31:07.143Z,101090.30
2022-10-23T17:34:02.349Z,101087.92
2022-10-23T17:36:56.463Z,101090.11
2022-10-23T17:39:48.453Z,101086.09
2022-10-23T17:42:38.751Z,101097.34
2022-10-23T17:45:34.273Z,101092.50
2022-10-23T17:48:26.337Z,101100.02
2022-10-23T17:51:20.262Z,101101.31
2022-10-23T17:54:14.781Z,101111.54
2022-10-23T17:57:06.897Z,101108.90
2022-10-23T17:59:59.189Z,101105.89
2022-10-23T18:02:51.629Z,101109.69
2022-10-23T18:05:43.611Z,101122.54
2022-10-23T18:08:35.640Z,101128.84
2022-10-23T18:11:31.269Z,101126.86
2022-10-23T18:14:28.489Z,101127.75
2022-10-23T18:17:21.770Z,101129.88
2022-10-23T18:20:15.830Z,101132.20
2022-10-23T18:23:08.162Z,101133.42
2022-10-23T18:26:00.978Z,101128.31
2022-10-23T18:28:55.765Z,101141.95
2022-10-23T18:31:49.570Z,101145.30
2022-10-23T18:34:41.745Z,101153.98
2022-10-23T18:37:34.710Z,101152.80
2022-10-23T18:40:29.701Z,101157.53
2022-10-23T18:43:42.165Z,101160.44
2022-10-23T18:46:34.860Z,101164.36
2022-10-23T18:49:26.888Z,101159.44
2022-10-23T18:52:19.534Z,101152.66
2022-10-23T18:55:13.551Z,101153.67
2022-10-23T18:58:05.643Z,101160.88
2022-10-23T19:00:57.788Z,101153.02
2022-10-23T19:03:50.603Z,101153.62
2022-10-23T19:06:43.343Z,101156.50
2022-10-23T19:09:36.430Z,101157.53
2022-10-23T19:12:28.256Z,101158.53
2022-10-23T19:15:20.230Z,101165.94
2022-10-23T19:18:12.758Z,101173.92
2022-10-23T19:21:06.194Z,101171.42
2022-10-23T19:24:00.122Z,101176.14
2022-10-23T19:26:53.413Z,101184.12
2022-10-23T19:29:48.404Z,101184.69
2022-10-23T19:32:41.012Z,101178.66
2022-10-23T19:35:31.271Z,101185.18
2022-10-23T19:38:23.147Z,101182.67
2022-10-23T19:41:16.370Z,101182.61
2022-10-23T19:44:08.216Z,101184.20
2022-10-23T19:47:00.720Z,101183.16
2022-10-23T19:49:53.532Z,101177.76
2022-10-23T19:52:45.307Z,101183.88
2022-10-23T19:55:37.842Z,101185.67
2022-10-23T19:58:30.301Z,101183.78
2022-10-23T20:01:24.672Z,101194.20
2022-10-23T20:04:16.720Z,101189.81
2022-10-23T20:07:08.717Z,101193.25
2022-10-23T20:10:01.181Z,101198.55
2022-10-23T20:12:57.131Z,101196.64
2022-10-23T20:16:05.856Z,101187.75
2022-10-23T20:18:58.619Z,101191.18
2022-10-23T20:21:51.737Z,101192.12
2022-10-23T20:24:44.280Z,101190.20
2022-10-23T20:30:29.860Z,101191.08
2022-10-23T20:33:22.860Z,101196.53
2022-10-23T20:36:27.267Z,101196.47
2022-10-23T20:39:21.935Z,101197.21
2022-10-23T20:42:14.694Z,101203.25
2022-10-23T20:45:08.948Z,101208.31
2022-10-23T20:48:01.069Z,101201.88
2022-10-23T20:50:53.046Z,101206.94
2022-10-23T20:53:46.159Z,101219.34
2022-10-23T20:56:39.893Z,101209.25
2022-10-23T20:59:33.831Z,101209.98
2022-10-23T21:02:25.776Z,101209.88
2022-10-23T21:05:17.685Z,101202.46
2022-10-23T21:08:10.247Z,101204.84
2022-10-23T21:11:02.641Z,101204.73
2022-10-23T21:13:57.029Z,101206.11
2022-10-23T21:16:49.559Z,101202.52
2022-10-23T21:19:41.842Z,101201.42
2022-10-23T21:22:32.762Z,101209.13
2022-10-23T21:25:25.614Z,101207.19
2022-10-23T21:28:17.614Z,101210.02
2022-10-23T21:31:13.129Z,101206.90
2022-10-23T21:34:05.043Z,101208.91
2022-10-23T21:37:14.182Z,101200.64
2022-10-23T21:40:09.230Z,101203.02
2022-10-23T21:43:00.943Z,101200.72
2022-10-23T21:45:55.491Z,101212.52
2022-10-23T21:48:50.337Z,101199.58
2022-10-23T21:51:42.309Z,101198.94
2022-10-23T21:54:34.805Z,101194.81
2022-10-23T21:57:30.730Z,101203.96
2022-10-23T22:00:23.005Z,101208.17
2022-10-23T22:03:14.638Z,101212.91
2022-10-23T22:06:06.854Z,101224.21
2022-10-23T22:09:00.748Z,101225.76
2022-10-23T22:11:54.127Z,101223.15
2022-10-23T22:14:46.606Z,101224.17
2022-10-23T22:17:38.285Z,101237.80
2022-10-23T22:20:30.052Z,101228.98
2022-10-23T22:23:21.706Z,101231.84
2022-10-23T22:26:22.511Z,101211.58
2022-10-23T22:29:16.760Z,101201.95
2022-10-23T22:32:09.049Z,101189.83
2022-10-23T22:35:01.170Z,101196.34
2022-10-23T22:37:53.302Z,101211.62
2022-10-23T22:40:46.834Z,101219.29
2022-10-23T22:43:39.143Z,101215.98
2022-10-23T22:46:32.324Z,101214.48
2022-10-23T22:49:24.701Z,101224.30
2022-10-23T22:52:17.939Z,101227.95
2022-10-23T22:55:12.289Z,101233.42
2022-10-23T22:58:05.181Z,101231.95
2022-10-23T23:01:08.015Z,101237.61
2022-10-23T23:04:08.667Z,101231.98
2022-10-23T23:07:12.607Z,101235.14
2022-10-23T23:10:05.738Z,101243.45
2022-10-23T23:12:57.818Z,101247.45
2022-10-23T23:15:50.057Z,101246.78
2022-10-23T23:18:41.063Z,101257.75
2022-10-23T23:21:33.938Z,101255.77
2022-10-23T23:24:27.040Z,101256.45
2022-10-23T23:27:19.907Z,101256.13
2022-10-23T23:30:14.888Z,101258.31
2022-10-23T23:33:07.663Z,101256.80
2022-10-23T23:35:57.963Z,101247.71
2022-10-23T23:38:50.792Z,101246.20
2022-10-23T23:41:41.000Z,101243.08
2022-10-23T23:44:32.656Z,101245.22
2022-10-23T23:47:24.473Z,101243.09
2022-10-23T23:50:18.173Z,101238.93
2022-10-23T23:53:10.358Z,101237.45
2022-10-23T23:56:02.644Z,101237.61
2022-10-23T23:58:54.583Z,101234.48
